sensor_id;sensor_type;location;lat;lon;timestamp;P1;durP1;ratioP1;P2;durP2;ratioP2
67051;SDS011;53957;47.222;18.670;2022-07-05T04:22:48;191.20;;;177.20;;
67051;SDS011;53957;47.222;18.670;2022-07-05T04:25:52;204.23;;;188.02;;
67051;SDS011;53957;47.222;18.670;2022-07-05T04:28:55;204.48;;;188.40;;
67051;SDS011;53957;47.222;18.670;2022-07-05T04:31:59;198.75;;;183.43;;
67051;SDS011;53957;47.222;18.670;2022-07-05T04:35:03;194.73;;;179.85;;
67051;SDS011;53957;47.222;18.670;2022-07-05T04:38:07;174.00;;;159.95;;
67051;SDS011;53957;47.222;18.670;2022-07-05T04:41:10;173.75;;;161.07;;
67051;SDS011;53957;47.222;18.670;2022-07-05T04:44:13;175.75;;;161.80;;
67051;SDS011;53957;47.222;18.670;2022-07-05T04:47:16;177.32;;;163.85;;
67051;SDS011;53957;47.222;18.670;2022-07-05T04:50:19;180.12;;;165.62;;
67051;SDS011;53957;47.222;18.670;2022-07-05T04:53:23;191.77;;;176.90;;
67051;SDS011;53957;47.222;18.670;2022-07-05T04:56:26;173.05;;;159.48;;
67051;SDS011;53957;47.222;18.670;2022-07-05T04:59:29;176.30;;;162.57;;
67051;SDS011;53957;47.222;18.670;2022-07-05T05:02:32;184.20;;;170.18;;
67051;SDS011;53957;47.222;18.670;2022-07-05T05:05:35;165.45;;;153.77;;
67051;SDS011;53957;47.222;18.670;2022-07-05T05:08:38;151.93;;;141.05;;
67051;SDS011;53957;47.222;18.670;2022-07-05T05:11:41;160.93;;;148.75;;
67051;SDS011;53957;47.222;18.670;2022-07-05T05:14:44;158.73;;;146.50;;
67051;SDS011;53957;47.222;18.670;2022-07-05T05:17:47;134.90;;;124.82;;
67051;SDS011;53957;47.222;18.670;2022-07-05T05:20:49;114.30;;;106.32;;
67051;SDS011;53957;47.222;18.670;2022-07-05T05:23:52;226.43;;;208.70;;
67051;SDS011;53957;47.222;18.670;2022-07-05T05:26:55;130.27;;;120.68;;
67051;SDS011;53957;47.222;18.670;2022-07-05T05:29:58;145.48;;;134.12;;
67051;SDS011;53957;47.222;18.670;2022-07-05T05:33:01;167.70;;;154.30;;
67051;SDS011;53957;47.222;18.670;2022-07-05T05:36:04;150.85;;;138.82;;
67051;SDS011;53957;47.222;18.670;2022-07-05T05:39:07;142.05;;;131.43;;
67051;SDS011;53957;47.222;18.670;2022-07-05T05:42:10;143.60;;;132.85;;
67051;SDS011;53957;47.222;18.670;2022-07-05T05:45:13;155.10;;;141.82;;
67051;SDS011;53957;47.222;18.670;2022-07-05T05:48:17;156.35;;;144.30;;
67051;SDS011;53957;47.222;18.670;2022-07-05T05:51:20;138.10;;;128.35;;
67051;SDS011;53957;47.222;18.670;2022-07-05T05:54:23;133.95;;;123.65;;
67051;SDS011;53957;47.222;18.670;2022-07-05T05:57:26;112.18;;;104.20;;
67051;SDS011;53957;47.222;18.670;2022-07-05T06:00:29;116.80;;;108.15;;
67051;SDS011;53957;47.222;18.670;2022-07-05T06:03:32;126.07;;;117.30;;
67051;SDS011;53957;47.222;18.670;2022-07-05T06:06:35;132.73;;;122.62;;
67051;SDS011;53957;47.222;18.670;2022-07-05T06:09:38;145.32;;;134.32;;
67051;SDS011;53957;47.222;18.670;2022-07-05T06:12:40;124.80;;;113.55;;
67051;SDS011;53957;47.222;18.670;2022-07-05T06:15:43;98.37;;;91.63;;
67051;SDS011;53957;47.222;18.670;2022-07-05T06:18:47;102.22;;;95.20;;
67051;SDS011;53957;47.222;18.670;2022-07-05T06:21:50;88.18;;;81.70;;
67051;SDS011;53957;47.222;18.670;2022-07-05T06:24:59;104.50;;;96.93;;
67051;SDS011;53957;47.222;18.670;2022-07-05T06:28:22;87.28;;;81.12;;
67051;SDS011;53957;47.222;18.670;2022-07-05T06:31:24;86.37;;;80.18;;
67051;SDS011;53957;47.222;18.670;2022-07-05T06:34:27;77.45;;;71.65;;
67051;SDS011;53957;47.222;18.670;2022-07-05T06:37:40;59.38;;;54.78;;
67051;SDS011;53957;47.222;18.670;2022-07-05T06:40:45;64.78;;;59.67;;
67051;SDS011;53957;47.222;18.670;2022-07-05T06:43:48;35.92;;;32.83;;
67051;SDS011;53957;47.222;18.670;2022-07-05T06:46:51;37.95;;;34.35;;
67051;SDS011;53957;47.222;18.670;2022-07-05T06:49:56;28.10;;;25.92;;
67051;SDS011;53957;47.222;18.670;2022-07-05T06:53:00;34.25;;;31.00;;
67051;SDS011;53957;47.222;18.670;2022-07-05T06:56:03;19.70;;;17.85;;
67051;SDS011;53957;47.222;18.670;2022-07-05T06:59:07;9.63;;;8.88;;
67051;SDS011;53957;47.222;18.670;2022-07-05T07:02:10;21.52;;;19.77;;
67051;SDS011;53957;47.222;18.670;2022-07-05T07:05:29;37.17;;;33.53;;
67051;SDS011;53957;47.222;18.670;2022-07-05T15:23:50;15.68;;;14.02;;
67051;SDS011;53957;47.222;18.670;2022-07-05T15:27:16;15.77;;;14.68;;
67051;SDS011;53957;47.222;18.670;2022-07-05T15:30:21;12.00;;;11.00;;
67051;SDS011;53957;47.222;18.670;2022-07-05T15:33:25;16.73;;;11.55;;
67051;SDS011;53957;47.222;18.670;2022-07-05T15:36:32;9.40;;;8.68;;
67051;SDS011;53957;47.222;18.670;2022-07-05T15:39:36;11.38;;;10.43;;
67051;SDS011;53957;47.222;18.670;2022-07-05T15:42:39;15.43;;;13.00;;
67051;SDS011;53957;47.222;18.670;2022-07-05T15:45:42;11.80;;;9.95;;
67051;SDS011;53957;47.222;18.670;2022-07-05T15:48:45;9.43;;;8.75;;
67051;SDS011;53957;47.222;18.670;2022-07-05T15:51:50;11.10;;;10.25;;
67051;SDS011;53957;47.222;18.670;2022-07-05T15:54:53;11.68;;;10.52;;
67051;SDS011;53957;47.222;18.670;2022-07-05T15:57:56;10.88;;;9.85;;
67051;SDS011;53957;47.222;18.670;2022-07-05T16:01:00;10.68;;;9.82;;
67051;SDS011;53957;47.222;18.670;2022-07-05T16:04:04;11.30;;;10.20;;
67051;SDS011;53957;47.222;18.670;2022-07-05T16:07:08;15.18;;;10.23;;
67051;SDS011;53957;47.222;18.670;2022-07-05T16:10:11;17.48;;;14.68;;
67051;SDS011;53957;47.222;18.670;2022-07-05T16:13:33;14.70;;;13.45;;
67051;SDS011;53957;47.222;18.670;2022-07-05T16:16:37;12.18;;;10.77;;
67051;SDS011;53957;47.222;18.670;2022-07-05T16:19:43;12.63;;;11.57;;
67051;SDS011;53957;47.222;18.670;2022-07-05T16:22:46;11.75;;;10.60;;
67051;SDS011;53957;47.222;18.670;2022-07-05T16:25:48;15.65;;;13.68;;
67051;SDS011;53957;47.222;18.670;2022-07-05T16:28:53;10.73;;;9.90;;
67051;SDS011;53957;47.222;18.670;2022-07-05T16:31:56;18.08;;;15.70;;
67051;SDS011;53957;47.222;18.670;2022-07-05T16:35:00;15.77;;;14.23;;
67051;SDS011;53957;47.222;18.670;2022-07-05T16:38:03;11.98;;;11.02;;
67051;SDS011;53957;47.222;18.670;2022-07-05T16:41:07;13.50;;;12.30;;
67051;SDS011;53957;47.222;18.670;2022-07-05T16:44:11;15.05;;;13.48;;
67051;SDS011;53957;47.222;18.670;2022-07-05T16:47:22;14.40;;;12.88;;
67051;SDS011;53957;47.222;18.670;2022-07-05T16:50:28;15.70;;;14.15;;
67051;SDS011;53957;47.222;18.670;2022-07-05T16:53:43;17.45;;;15.70;;
67051;SDS011;53957;47.222;18.670;2022-07-05T16:56:47;19.58;;;12.43;;
67051;SDS011;53957;47.222;18.670;2022-07-05T17:00:00;11.52;;;10.55;;
67051;SDS011;53957;47.222;18.670;2022-07-05T17:03:11;11.52;;;10.57;;
67051;SDS011;53957;47.222;18.670;2022-07-05T17:06:14;15.30;;;13.70;;
67051;SDS011;53957;47.222;18.670;2022-07-05T17:09:18;16.05;;;14.52;;
67051;SDS011;53957;47.222;18.670;2022-07-05T17:12:21;11.60;;;10.65;;
67051;SDS011;53957;47.222;18.670;2022-07-05T17:15:24;16.00;;;14.27;;
67051;SDS011;53957;47.222;18.670;2022-07-05T17:18:27;13.68;;;11.70;;
67051;SDS011;53957;47.222;18.670;2022-07-05T17:21:30;15.75;;;14.20;;
67051;SDS011;53957;47.222;18.670;2022-07-05T17:24:34;14.87;;;13.52;;
67051;SDS011;53957;47.222;18.670;2022-07-05T17:27:37;14.93;;;13.48;;
67051;SDS011;53957;47.222;18.670;2022-07-05T17:30:40;11.05;;;10.07;;
67051;SDS011;53957;47.222;18.670;2022-07-05T17:33:43;21.20;;;14.63;;
67051;SDS011;53957;47.222;18.670;2022-07-05T17:36:48;15.75;;;14.02;;
67051;SDS011;53957;47.222;18.670;2022-07-05T17:39:53;13.10;;;12.00;;
67051;SDS011;53957;47.222;18.670;2022-07-05T17:42:56;13.38;;;12.30;;
67051;SDS011;53957;47.222;18.670;2022-07-05T17:45:59;15.15;;;13.57;;
67051;SDS011;53957;47.222;18.670;2022-07-05T17:49:02;14.32;;;12.82;;
67051;SDS011;53957;47.222;18.670;2022-07-05T17:52:05;11.10;;;10.23;;
67051;SDS011;53957;47.222;18.670;2022-07-05T17:55:12;15.57;;;14.18;;
67051;SDS011;53957;47.222;18.670;2022-07-05T17:58:15;16.17;;;13.68;;
67051;SDS011;53957;47.222;18.670;2022-07-05T18:01:20;17.62;;;15.18;;
67051;SDS011;53957;47.222;18.670;2022-07-05T18:04:23;16.50;;;14.98;;
67051;SDS011;53957;47.222;18.670;2022-07-05T18:07:26;18.87;;;14.70;;
67051;SDS011;53957;47.222;18.670;2022-07-05T18:10:29;14.87;;;13.55;;
67051;SDS011;53957;47.222;18.670;2022-07-05T18:13:32;16.90;;;15.52;;
67051;SDS011;53957;47.222;18.670;2022-07-05T18:16:35;13.40;;;12.15;;
67051;SDS011;53957;47.222;18.670;2022-07-05T18:19:39;17.77;;;16.10;;
67051;SDS011;53957;47.222;18.670;2022-07-05T18:22:43;19.65;;;16.60;;
67051;SDS011;53957;47.222;18.670;2022-07-05T18:25:46;17.92;;;15.68;;
67051;SDS011;53957;47.222;18.670;2022-07-05T18:28:49;14.35;;;13.25;;
67051;SDS011;53957;47.222;18.670;2022-07-05T18:31:53;14.80;;;13.70;;
67051;SDS011;53957;47.222;18.670;2022-07-05T18:34:58;15.15;;;13.75;;
67051;SDS011;53957;47.222;18.670;2022-07-05T18:38:01;17.30;;;15.73;;
67051;SDS011;53957;47.222;18.670;2022-07-05T18:41:05;15.23;;;14.02;;
67051;SDS011;53957;47.222;18.670;2022-07-05T18:44:08;18.95;;;17.30;;
67051;SDS011;53957;47.222;18.670;2022-07-05T18:47:11;20.23;;;18.35;;
67051;SDS011;53957;47.222;18.670;2022-07-05T18:50:14;16.33;;;15.00;;
67051;SDS011;53957;47.222;18.670;2022-07-05T18:53:23;17.15;;;15.63;;
67051;SDS011;53957;47.222;18.670;2022-07-05T18:56:26;19.35;;;17.30;;
67051;SDS011;53957;47.222;18.670;2022-07-05T18:59:31;16.08;;;14.75;;
67051;SDS011;53957;47.222;18.670;2022-07-05T19:02:34;14.73;;;13.45;;
67051;SDS011;53957;47.222;18.670;2022-07-05T19:05:40;18.08;;;16.60;;
67051;SDS011;53957;47.222;18.670;2022-07-05T19:09:03;16.65;;;14.95;;
67051;SDS011;53957;47.222;18.670;2022-07-05T19:12:25;15.77;;;14.48;;
